createdAt,value
2022-11-21T00:02:04.089Z,100443.28
2022-11-21T00:04:35.981Z,100439.78
2022-11-21T00:07:07.901Z,100437.41
2022-11-21T00:09:39.922Z,100438.25
2022-11-21T00:12:11.750Z,100443.75
2022-11-21T00:14:43.659Z,100444.59
2022-11-21T00:17:15.597Z,100435.72
2022-11-21T00:19:47.531Z,100435.72
2022-11-21T00:22:19.346Z,100433.91
2022-11-21T00:24:54.180Z,100439.25
2022-11-21T00:27:26.302Z,100429.53
2022-11-21T00:29:58.116Z,100430.38
2022-11-21T00:32:29.972Z,100433.38
2022-11-21T00:35:02.200Z,100420.47
2022-11-21T00:37:34.442Z,100418.06
2022-11-21T00:40:07.113Z,100425.44
2022-11-21T00:42:39.043Z,100416.41
2022-11-21T00:45:10.996Z,100412.72
2022-11-21T00:47:42.815Z,100416.41
2022-11-21T00:50:14.827Z,100411.34
2022-11-21T00:52:46.849Z,100413.50
2022-11-21T00:55:18.658Z,100409.59
2022-11-21T00:57:50.840Z,100406.22
2022-11-21T01:00:22.825Z,100403.72
2022-11-21T01:02:54.786Z,100401.19
2022-11-21T01:05:26.615Z,100407.53
2022-11-21T01:07:58.538Z,100401.19
2022-11-21T01:10:30.539Z,100405.56
2022-11-21T01:13:02.944Z,100403.72
2022-11-21T01:15:34.969Z,100411.56
2022-11-21T01:18:06.805Z,100405.56
2022-11-21T01:20:41.389Z,100407.25
2022-11-21T01:23:13.264Z,100406.22
2022-11-21T01:25:45.170Z,100414.94
2022-11-21T01:28:16.935Z,100410.59
2022-11-21T01:30:48.813Z,100412.28
2022-11-21T01:33:20.655Z,100406.22
2022-11-21T01:35:52.577Z,100404.56
2022-11-21T01:38:24.521Z,100409.06
2022-11-21T01:40:56.398Z,100402.31
2022-11-21T01:43:28.276Z,100400.66
2022-11-21T01:46:05.841Z,100413.31
2022-11-21T01:49:06.809Z,100411.63
2022-11-21T01:51:46.033Z,100415.28
2022-11-21T01:54:32.036Z,100412.78
2022-11-21T01:57:07.386Z,100414.75
2022-11-21T01:59:44.505Z,100415.06
2022-11-21T02:02:18.974Z,100424.38
2022-11-21T02:04:52.577Z,100415.66
2022-11-21T02:07:25.293Z,100424.66
2022-11-21T02:10:02.057Z,100422.00
2022-11-21T02:12:38.433Z,100425.50
2022-11-21T02:15:11.385Z,100425.38
2022-11-21T02:17:43.209Z,100423.69
2022-11-21T02:20:20.135Z,100417.09
2022-11-21T02:23:01.874Z,100419.38
2022-11-21T02:25:38.535Z,100419.50
2022-11-21T02:28:16.175Z,100417.16
2022-11-21T02:30:48.030Z,100412.66
2022-11-21T02:33:20.264Z,100413.50
2022-11-21T02:36:00.191Z,100411.66
2022-11-21T02:38:38.269Z,100415.00
2022-11-21T02:41:26.765Z,100418.38
2022-11-21T02:44:04.276Z,100402.22
2022-11-21T02:46:36.298Z,100413.19
2022-11-21T02:49:09.400Z,100404.78
2022-11-21T02:51:41.225Z,100408.44
2022-11-21T02:54:13.085Z,100407.75
2022-11-21T02:56:44.903Z,100408.75
2022-11-21T02:59:16.767Z,100409.06
2022-11-21T03:01:48.573Z,100413.44
2022-11-21T03:04:20.580Z,100402.06
2022-11-21T03:06:52.795Z,100405.19
2022-11-21T03:09:24.570Z,100400.44
2022-11-21T03:11:56.468Z,100398.47
2022-11-21T03:14:28.558Z,100400.06
2022-11-21T03:17:00.578Z,100398.97
2022-11-21T03:19:32.427Z,100396.06
2022-11-21T03:22:04.240Z,100391.28
2022-11-21T03:24:36.020Z,100384.84
2022-11-21T03:27:08.115Z,100394.00
2022-11-21T03:29:40.013Z,100386.00
2022-11-21T03:32:11.949Z,100380.94
2022-11-21T03:34:44.738Z,100377.31
2022-11-21T03:37:17.034Z,100379.56
2022-11-21T03:39:48.891Z,100372.53
2022-11-21T03:42:20.646Z,100380.72
2022-11-21T03:44:52.503Z,100391.81
2022-11-21T03:47:25.741Z,100393.03
2022-11-21T03:49:57.685Z,100388.72
2022-11-21T03:52:29.483Z,100387.16
2022-11-21T03:55:01.487Z,100388.00
2022-11-21T03:57:33.582Z,100390.25
2022-11-21T04:00:05.866Z,100396.56
2022-11-21T04:02:38.069Z,100396.72
2022-11-21T04:05:10.186Z,100392.81
2022-11-21T04:07:42.071Z,100396.72
2022-11-21T04:10:14.018Z,100387.75
2022-11-21T04:12:45.843Z,100396.72
2022-11-21T04:15:17.672Z,100397.13
2022-11-21T04:17:49.523Z,100404.28
2022-11-21T04:20:21.392Z,100409.06
2022-11-21T04:22:53.406Z,100405.13
2022-11-21T04:25:25.280Z,100404.28
2022-11-21T04:27:58.101Z,100409.34
2022-11-21T04:30:30.682Z,100407.09
2022-11-21T04:33:02.535Z,100403.59
2022-11-21T04:35:34.407Z,100402.75
2022-11-21T04:38:07.931Z,100411.84
2022-11-21T04:40:40.008Z,100403.59
2022-11-21T04:43:12.159Z,100415.47
2022-11-21T04:45:44.619Z,100413.94
2022-11-21T04:48:16.437Z,100410.44
2022-11-21T04:50:48.351Z,100419.41
2022-11-21T04:53:20.313Z,100417.03
2022-11-21T04:55:52.188Z,100418.72
2022-11-21T04:58:24.121Z,100411.13
2022-11-21T05:00:56.114Z,100407.63
2022-11-21T05:03:27.963Z,100410.13
2022-11-21T05:05:59.834Z,100410.00
2022-11-21T05:08:31.810Z,100410.97
2022-11-21T05:11:22.446Z,100410.28
2022-11-21T05:13:55.070Z,100415.75
2022-11-21T05:16:26.931Z,100414.91
2022-11-21T05:18:58.784Z,100413.19
2022-11-21T05:21:30.573Z,100413.06
2022-11-21T05:24:02.845Z,100410.97
2022-11-21T05:26:34.748Z,100414.06
2022-11-21T05:29:07.188Z,100414.50
2022-11-21T05:31:39.204Z,100419.41
2022-11-21T05:34:11.066Z,100415.66
2022-11-21T05:36:42.878Z,100417.03
2022-11-21T05:39:15.953Z,100415.94
2022-11-21T05:41:47.843Z,100416.38
2022-11-21T05:44:19.833Z,100418.31
2022-11-21T05:46:51.672Z,100421.41
2022-11-21T05:49:23.576Z,100418.56
2022-11-21T05:51:55.529Z,100407.78
2022-11-21T05:54:27.554Z,100413.53
2022-11-21T05:56:59.498Z,100421.63
2022-11-21T05:59:31.584Z,100422.78
2022-11-21T06:02:22.287Z,100428.63
2022-11-21T06:04:54.185Z,100417.56
2022-11-21T06:07:26.106Z,100426.38
2022-11-21T06:09:58.041Z,100419.38
2022-11-21T06:12:29.921Z,100418.81
2022-11-21T06:15:01.832Z,100422.97
2022-11-21T06:17:33.699Z,100417.22
2022-11-21T06:20:06.091Z,100419.31
2022-11-21T06:22:37.941Z,100408.97
2022-11-21T06:25:10.129Z,100409.09
2022-11-21T06:27:41.913Z,100413.69
2022-11-21T06:30:17.675Z,100408.66
2022-11-21T06:32:54.686Z,100406.72
2022-11-21T06:35:26.627Z,100406.44
2022-11-21T06:37:58.749Z,100404.88
2022-11-21T06:40:30.530Z,100412.34
2022-11-21T06:43:02.527Z,100414.75
2022-11-21T06:45:34.345Z,100419.78
2022-11-21T06:48:06.494Z,100412.78
2022-11-21T06:50:38.711Z,100418.81
2022-11-21T06:53:10.641Z,100426.09
2022-11-21T06:55:42.490Z,100419.06
2022-11-21T06:58:14.397Z,100419.78
2022-11-21T07:00:48.650Z,100426.38
2022-11-21T07:03:21.128Z,100416.03
2022-11-21T07:05:58.406Z,100421.63
2022-11-21T07:08:31.682Z,100420.97
2022-11-21T07:13:57.916Z,100422.50
2022-11-21T07:16:32.360Z,100411.84
2022-11-21T07:19:04.360Z,100408.91
2022-11-21T07:21:36.297Z,100415.63
2022-11-21T07:24:08.180Z,100413.94
2022-11-21T07:26:39.953Z,100418.84
2022-11-21T07:29:11.777Z,100405.53
2022-11-21T07:31:43.583Z,100412.25
2022-11-21T07:34:15.451Z,100417.16
2022-11-21T07:36:47.263Z,100409.06
2022-11-21T07:39:19.481Z,100413.53
2022-11-21T07:41:51.302Z,100418.03
2022-11-21T07:44:23.194Z,100410.44
2022-11-21T07:46:55.614Z,100407.91
2022-11-21T07:49:27.874Z,100412.97
2022-11-21T07:52:00.004Z,100408.63
2022-11-21T07:54:31.851Z,100411.84
2022-11-21T07:57:03.790Z,100415.88
2022-11-21T07:59:35.791Z,100423.03
2022-11-21T08:02:07.682Z,100417.56
2022-11-21T08:04:39.637Z,100422.78
2022-11-21T08:07:11.503Z,100417.69
2022-11-21T08:09:43.737Z,100417.69
2022-11-21T08:12:16.097Z,100409.72
2022-11-21T08:14:47.968Z,100411.94
2022-11-21T08:17:19.989Z,100421.63
2022-11-21T08:19:52.117Z,100414.34
2022-11-21T08:22:24.025Z,100417.03
2022-11-21T08:24:55.813Z,100410.44
2022-11-21T08:27:28.274Z,100407.63
2022-11-21T08:30:00.123Z,100413.81
2022-11-21T08:32:31.962Z,100411.41
2022-11-21T08:35:04.416Z,100402.03
2022-11-21T08:37:36.289Z,100404.88
2022-11-21T08:40:08.471Z,100396.72
2022-11-21T08:42:40.465Z,100393.78
2022-11-21T08:45:12.262Z,100396.44
2022-11-21T08:47:44.102Z,100394.75
2022-11-21T08:50:15.931Z,100391.13
2022-11-21T08:52:47.759Z,100384.97
2022-11-21T08:55:20.044Z,100390.53
2022-11-21T08:57:51.911Z,100396.72
2022-11-21T09:00:23.836Z,100399.53
2022-11-21T09:02:55.761Z,100390.00
2022-11-21T09:05:27.682Z,100398.41
2022-11-21T09:08:00.027Z,100401.78
2022-11-21T09:10:31.881Z,100398.28
2022-11-21T09:13:03.779Z,100394.03
2022-11-21T09:15:54.185Z,100398.69
2022-11-21T09:18:26.237Z,100389.13
2022-11-21T09:20:59.060Z,100388.03
2022-11-21T09:23:30.933Z,100395.19
2022-11-21T09:26:02.910Z,100404.00
2022-11-21T09:28:35.882Z,100411.28
2022-11-21T09:31:08.648Z,100403.03
2022-11-21T09:33:40.529Z,100398.97
2022-11-21T09:36:12.383Z,100398.09
2022-11-21T09:38:44.213Z,100402.88
2022-11-21T09:41:50.233Z,100408.75
2022-11-21T09:44:34.140Z,100409.59
2022-11-21T09:47:25.330Z,100406.94
2022-11-21T09:50:05.175Z,100407.91
2022-11-21T09:53:05.639Z,100404.25
2022-11-21T09:55:59.580Z,100402.88
2022-11-21T09:58:32.763Z,100409.19
2022-11-21T10:01:04.931Z,100397.81
2022-11-21T10:03:45.068Z,100405.94
2022-11-21T10:06:36.720Z,100409.44
2022-11-21T10:09:36.342Z,100407.78
2022-11-21T10:12:35.706Z,100397.81
2022-11-21T10:15:38.136Z,100402.16
2022-11-21T10:18:32.946Z,100395.84
2022-11-21T10:21:19.076Z,100399.91
2022-11-21T10:23:56.414Z,100398.94
2022-11-21T10:26:58.280Z,100409.31
2022-11-21T10:29:39.147Z,100398.63
2022-11-21T10:32:22.632Z,100388.69
2022-11-21T10:35:25.266Z,100383.50
2022-11-21T10:38:00.756Z,100383.22
2022-11-21T10:40:36.890Z,100382.22
2022-11-21T10:43:29.632Z,100372.84
2022-11-21T10:46:01.572Z,100383.22
2022-11-21T10:48:33.466Z,100376.47
2022-11-21T10:51:25.841Z,100372.38
2022-11-21T10:54:30.996Z,100372.78
2022-11-21T10:57:14.540Z,100362.94
2022-11-21T11:00:13.926Z,100363.47
2022-11-21T11:02:57.802Z,100360.22
2022-11-21T11:05:31.421Z,100368.50
2022-11-21T11:08:14.110Z,100357.91
2022-11-21T11:11:01.789Z,100358.13
2022-11-21T11:13:51.694Z,100358.31
2022-11-21T11:16:24.523Z,100356.97
2022-11-21T11:19:03.410Z,100354.41
2022-11-21T11:21:41.063Z,100345.69
2022-11-21T11:24:12.824Z,100332.59
2022-11-21T11:26:48.661Z,100336.72
2022-11-21T11:29:26.623Z,100334.72
2022-11-21T11:31:58.685Z,100341.28
2022-11-21T11:34:40.143Z,100339.09
2022-11-21T11:37:39.843Z,100331.22
2022-11-21T11:40:36.252Z,100327.59
2022-11-21T11:43:29.778Z,100322.97
2022-11-21T11:46:42.147Z,100317.81
2022-11-21T11:49:28.715Z,100316.75
2022-11-21T11:52:03.645Z,100317.41
2022-11-21T11:54:47.056Z,100313.91
2022-11-21T11:57:19.247Z,100316.28
2022-11-21T12:00:22.348Z,100314.38
2022-11-21T12:03:11.852Z,100320.72
2022-11-21T12:05:56.749Z,100300.41
2022-11-21T12:08:56.587Z,100296.16
2022-11-21T12:11:52.663Z,100272.78
2022-11-21T12:14:55.571Z,100269.16
2022-11-21T12:17:34.251Z,100276.53
2022-11-21T12:20:14.941Z,100270.53
2022-11-21T12:22:49.056Z,100263.44
2022-11-21T12:25:25.547Z,100256.25
2022-11-21T12:27:57.408Z,100248.03
2022-11-21T12:30:41.414Z,100251.22
2022-11-21T12:33:20.542Z,100243.84
2022-11-21T12:36:21.537Z,100241.19
2022-11-21T12:39:22.643Z,100235.97
2022-11-21T12:42:42.236Z,100242.00
2022-11-21T12:45:24.424Z,100242.69
2022-11-21T12:48:23.919Z,100240.34
2022-11-21T12:51:20.388Z,100231.78
2022-11-21T12:54:33.441Z,100232.47
2022-11-21T12:57:15.496Z,100226.25
2022-11-21T12:59:56.322Z,100231.94
2022-11-21T13:02:42.936Z,100230.44
2022-11-21T13:05:23.784Z,100217.69
2022-11-21T13:08:02.306Z,100214.19
2022-11-21T13:10:35.280Z,100211.50
2022-11-21T13:13:09.719Z,100211.34
2022-11-21T13:15:57.643Z,100205.00
2022-11-21T13:18:34.063Z,100206.81
2022-11-21T13:21:05.923Z,100208.66
2022-11-21T13:23:42.016Z,100209.84
2022-11-21T13:26:26.185Z,100202.81
2022-11-21T13:29:27.358Z,100204.81
2022-11-21T13:31:59.449Z,100195.13
2022-11-21T13:34:31.231Z,100193.75
2022-11-21T13:37:04.204Z,100195.78
2022-11-21T13:39:37.169Z,100199.78
2022-11-21T13:42:28.989Z,100203.78
2022-11-21T13:45:40.579Z,100205.09
2022-11-21T13:48:36.635Z,100201.78
2022-11-21T13:51:27.292Z,100204.75
2022-11-21T13:54:26.706Z,100208.78
2022-11-21T13:57:25.615Z,100203.75
2022-11-21T14:00:13.237Z,100210.91
2022-11-21T14:03:08.720Z,100201.53
2022-11-21T14:06:01.500Z,100204.22
2022-11-21T14:08:33.716Z,100213.22
2022-11-21T14:11:26.621Z,100203.38
2022-11-21T14:13:58.578Z,100202.88
2022-11-21T14:16:35.684Z,100213.41
2022-11-21T14:19:13.743Z,100210.38
2022-11-21T14:21:46.308Z,100205.03
2022-11-21T14:24:19.679Z,100205.19
2022-11-21T14:26:52.692Z,100204.34
2022-11-21T14:29:40.837Z,100198.31
2022-11-21T14:32:16.035Z,100204.69
2022-11-21T14:34:47.914Z,100194.81
2022-11-21T14:37:20.844Z,100191.31
2022-11-21T14:39:57.104Z,100188.63
2022-11-21T14:42:36.130Z,100180.59
2022-11-21T14:45:15.314Z,100192.59
2022-11-21T14:47:51.760Z,100195.47
2022-11-21T14:50:31.678Z,100189.59
2022-11-21T14:53:04.249Z,100188.22
2022-11-21T14:55:36.172Z,100186.56
2022-11-21T14:58:10.203Z,100182.03
2022-11-21T15:03:34.491Z,100188.91
2022-11-21T15:06:10.887Z,100189.06
2022-11-21T15:11:43.444Z,100176.81
2022-11-21T15:14:34.851Z,100173.47
2022-11-21T15:17:10.735Z,100174.97
2022-11-21T15:19:43.460Z,100174.44
2022-11-21T15:22:35.669Z,100171.09
2022-11-21T15:25:15.845Z,100165.88
2022-11-21T15:28:15.366Z,100164.22
2022-11-21T15:30:47.826Z,100153.00
2022-11-21T15:33:20.412Z,100143.63
2022-11-21T15:35:53.853Z,100149.31
2022-11-21T15:38:33.714Z,100152.97
2022-11-21T15:41:10.508Z,100149.94
2022-11-21T15:43:46.162Z,100150.09
2022-11-21T15:46:23.659Z,100148.59
2022-11-21T15:49:25.157Z,100140.72
2022-11-21T15:52:10.494Z,100140.22
2022-11-21T15:54:42.707Z,100144.88
2022-11-21T15:57:17.100Z,100149.53
2022-11-21T15:59:49.885Z,100142.81
2022-11-21T16:02:22.147Z,100137.47
2022-11-21T16:04:54.666Z,100143.16
2022-11-21T16:07:26.679Z,100141.47
2022-11-21T16:09:58.896Z,100142.66
2022-11-21T16:12:30.825Z,100137.44
2022-11-21T16:15:02.781Z,100128.09
2022-11-21T16:17:34.885Z,100123.03
2022-11-21T16:20:07.139Z,100113.38
2022-11-21T16:22:42.808Z,100107.47
2022-11-21T16:25:18.908Z,100109.66
2022-11-21T16:27:51.182Z,100108.94
2022-11-21T16:30:23.050Z,100104.63
2022-11-21T16:32:56.220Z,100102.25
2022-11-21T16:35:28.080Z,100097.38
2022-11-21T16:37:59.958Z,100094.88
2022-11-21T16:40:31.832Z,100096.38
2022-11-21T16:43:11.988Z,100091.84
2022-11-21T16:45:44.053Z,100082.84
2022-11-21T16:48:16.091Z,100074.16
2022-11-21T16:50:48.506Z,100085.81
2022-11-21T16:53:20.405Z,100081.81
2022-11-21T16:56:00.636Z,100093.63
2022-11-21T16:58:32.663Z,100087.06
2022-11-21T17:01:11.033Z,100096.38
2022-11-21T17:03:44.449Z,100101.03
2022-11-21T17:06:18.878Z,100105.84
2022-11-21T17:08:50.981Z,100116.84
2022-11-21T17:11:28.954Z,100121.69
2022-11-21T17:14:03.288Z,100126.31
2022-11-21T17:16:35.694Z,100126.78
2022-11-21T17:19:10.961Z,100132.59
2022-11-21T17:21:42.928Z,100132.88
2022-11-21T17:24:14.926Z,100126.16
2022-11-21T17:26:46.763Z,100122.97
2022-11-21T17:29:18.565Z,100133.13
2022-11-21T17:31:51.087Z,100133.41
2022-11-21T17:34:25.932Z,100130.53
2022-11-21T17:37:01.723Z,100120.31
2022-11-21T17:39:34.118Z,100118.94
2022-11-21T17:42:06.107Z,100129.91
2022-11-21T17:44:38.188Z,100128.09
2022-11-21T17:47:10.182Z,100115.88
2022-11-21T17:49:42.064Z,100119.53
2022-11-21T17:52:13.851Z,100121.69
2022-11-21T17:54:47.094Z,100132.78
2022-11-21T17:57:19.517Z,100126.09
2022-11-21T17:59:51.674Z,100116.03
2022-11-21T18:02:24.388Z,100115.94
2022-11-21T18:04:56.342Z,100104.59
2022-11-21T18:07:29.860Z,100109.25
2022-11-21T18:10:27.524Z,100103.53
2022-11-21T18:12:53.857Z,100103.28
2022-11-21T18:15:25.740Z,100097.41
2022-11-21T18:17:57.821Z,100093.34
2022-11-21T18:20:29.997Z,100085.97
2022-11-21T18:23:01.822Z,100089.91
2022-11-21T18:25:37.963Z,100085.84
2022-11-21T18:28:10.251Z,100085.47
2022-11-21T18:30:42.179Z,100085.78
2022-11-21T18:33:18.761Z,100088.56
2022-11-21T18:35:51.002Z,100082.41
2022-11-21T18:38:46.838Z,100066.44
2022-11-21T18:41:17.404Z,100068.41
2022-11-21T18:44:03.199Z,100054.41
2022-11-21T18:46:36.622Z,100041.22
2022-11-21T18:49:08.843Z,100040.69
2022-11-21T18:51:40.931Z,100027.69
2022-11-21T18:54:13.031Z,100020.66
2022-11-21T18:56:45.062Z,100011.44
2022-11-21T18:59:17.326Z,100016.25
2022-11-21T19:01:49.924Z,99996.22
2022-11-21T19:04:22.209Z,99995.66
2022-11-21T19:06:54.656Z,99996.13
2022-11-21T19:09:32.560Z,99991.25
2022-11-21T19:12:05.331Z,99984.00
2022-11-21T19:14:37.230Z,99975.63
2022-11-21T19:17:09.183Z,99970.56
2022-11-21T19:19:41.042Z,99967.50
2022-11-21T19:22:13.042Z,99953.53
2022-11-21T19:24:45.049Z,99958.88
2022-11-21T19:27:17.020Z,99955.19
2022-11-21T19:29:53.724Z,99953.09
2022-11-21T19:32:25.609Z,99949.72
2022-11-21T19:34:57.661Z,99960.50
2022-11-21T19:37:30.051Z,99948.22
2022-11-21T19:40:01.927Z,99943.88
2022-11-21T19:42:33.774Z,99943.19
2022-11-21T19:45:06.645Z,99944.19
2022-11-21T19:47:38.550Z,99953.81
2022-11-21T19:50:10.698Z,99960.69
2022-11-21T19:52:42.522Z,99962.50
2022-11-21T19:55:14.473Z,99957.72
2022-11-21T19:57:46.291Z,99947.59
2022-11-21T20:00:18.741Z,99956.28
2022-11-21T20:02:51.425Z,99959.09
2022-11-21T20:05:23.364Z,99951.28
2022-11-21T20:08:01.657Z,99947.78
2022-11-21T20:10:35.909Z,99964.59
2022-11-21T20:13:07.842Z,99964.72
2022-11-21T20:15:39.760Z,99963.03
2022-11-21T20:18:12.505Z,99960.25
2022-11-21T20:20:44.421Z,99953.25
2022-11-21T20:23:16.277Z,99956.88
2022-11-21T20:25:51.518Z,99955.75
2022-11-21T20:28:23.418Z,99953.09
2022-11-21T20:30:55.290Z,99960.25
2022-11-21T20:33:27.196Z,99958.56
2022-11-21T20:36:03.520Z,99967.50
2022-11-21T20:38:36.350Z,99964.47
2022-11-21T20:41:08.216Z,99974.25
2022-11-21T20:44:25.201Z,99985.06
2022-11-21T20:46:33.253Z,99984.66
2022-11-21T20:49:05.203Z,99976.81
2022-11-21T20:54:29.581Z,99979.47
2022-11-21T20:57:01.659Z,99973.47
2022-11-21T20:59:33.644Z,99972.47
2022-11-21T21:02:06.333Z,99981.31
2022-11-21T21:04:38.253Z,99985.78
2022-11-21T21:07:10.301Z,99986.94
2022-11-21T21:09:42.134Z,99970.13
2022-11-21T21:12:14.000Z,99972.91
2022-11-21T21:14:45.856Z,99969.59
2022-11-21T21:17:17.758Z,99974.06
2022-11-21T21:19:49.776Z,99970.56
2022-11-21T21:22:21.653Z,99963.56
2022-11-21T21:24:53.518Z,99940.75
2022-11-21T21:27:25.708Z,99939.22
2022-11-21T21:29:57.663Z,99937.41
2022-11-21T21:32:29.721Z,99935.19
2022-11-21T21:35:02.747Z,99936.03
2022-11-21T21:37:34.778Z,99924.56
2022-11-21T21:40:07.498Z,99913.22
2022-11-21T21:42:39.380Z,99924.81
2022-11-21T21:45:11.530Z,99934.63
2022-11-21T21:47:43.453Z,99940.78
2022-11-21T21:50:16.074Z,99945.44
2022-11-21T21:52:48.210Z,99943.75
2022-11-21T21:55:20.026Z,99938.72
2022-11-21T21:57:52.727Z,99938.56
2022-11-21T22:00:24.641Z,99946.69
2022-11-21T22:02:56.508Z,99944.72
2022-11-21T22:05:28.590Z,99939.13
2022-11-21T22:08:00.489Z,99947.09
2022-11-21T22:10:32.335Z,99957.75
2022-11-21T22:13:04.207Z,99951.41
2022-11-21T22:15:36.128Z,99956.06
2022-11-21T22:18:08.061Z,99953.09
2022-11-21T22:20:39.978Z,99942.31
2022-11-21T22:23:11.861Z,99941.88
2022-11-21T22:25:43.730Z,99941.88
2022-11-21T22:28:15.835Z,99940.59
2022-11-21T22:30:58.392Z,99950.25
2022-11-21T22:33:30.211Z,99963.25
2022-11-21T22:36:04.091Z,99952.09
2022-11-21T22:38:36.355Z,99936.00
2022-11-21T22:41:14.232Z,99944.63
2022-11-21T22:43:53.054Z,99925.88
2022-11-21T22:46:29.946Z,99923.09
2022-11-21T22:49:02.079Z,99921.09
2022-11-21T22:51:34.592Z,99917.91
2022-11-21T22:54:06.622Z,99910.75
2022-11-21T22:56:38.410Z,99899.59
2022-11-21T22:59:12.777Z,99912.06
2022-11-21T23:01:44.762Z,99893.88
2022-11-21T23:04:18.040Z,99898.50
2022-11-21T23:06:50.056Z,99890.66
2022-11-21T23:09:21.958Z,99888.28
2022-11-21T23:11:53.797Z,99886.91
2022-11-21T23:14:25.689Z,99889.59
2022-11-21T23:16:57.584Z,99888.28
2022-11-21T23:19:29.863Z,99896.97
2022-11-21T23:22:01.859Z,99902.00
2022-11-21T23:24:33.697Z,99893.16
2022-11-21T23:27:05.555Z,99887.72
2022-11-21T23:29:37.427Z,99886.75
2022-11-21T23:32:09.566Z,99892.19
2022-11-21T23:34:41.410Z,99900.03
2022-11-21T23:37:13.281Z,99880.41
2022-11-21T23:39:45.198Z,99861.50
2022-11-21T23:42:17.132Z,99857.03
2022-11-21T23:44:49.022Z,99856.03
2022-11-21T23:47:20.919Z,99846.94
2022-11-21T23:49:52.748Z,99846.63
2022-11-21T23:52:24.710Z,99849.00
2022-11-21T23:54:56.728Z,99857.81
2022-11-21T23:57:28.585Z,99854.31
